Skagerak — SGCD — position and weather

sailwx.info

Track history (hours):
 
Tides and Currents Weather Stations Pressure Air Temp Water Temp Dewpoint Dewpoint Depression Visibility Wind Speed Wind Dir Waves Ship Positions

Oceanographic research ship Skagerak (Sweden)

Detailed information on ship capabilities available from University of Delaware's Ocean Information Center.

Last reported at 2014-Sep-15 23:19 UTC. Time now 2014-Sep-16 02:55 UTC.
Position N 58°56' E 011°10'.

Length 37 m; draft 3.8 m.

Type: Dredging. MMSI: 265280000.

Date/timePositionNaut miles runAvg speedWind from/ knotsBaromVisibWave heightAir tempDewpointWater temp
2014-Sep-15 23:19N 58°56' E 011°10'36 2.4
2014-Sep-15 08:12N 58°20' E 011°09'10 9.4
2014-Sep-15 07:06N 58°15' E 011°27'  
2014-Sep-11 09:20N 58°15' E 011°27'1 0.1
2014-Sep-10 17:33N 58°16' E 011°26'5 3.7
2014-Sep-10 16:12N 58°12' E 011°29'3 5.2
2014-Sep-10 15:33N 58°13' E 011°34'0 0.5
2014-Sep-10 14:33N 58°14' E 011°34'0 0.5
2014-Sep-10 13:33N 58°13' E 011°34'1 0.6
2014-Sep-10 12:29N 58°14' E 011°35'1 0.6
2014-Sep-10 11:33N 58°14' E 011°34'0 0.0
2014-Sep-10 10:33N 58°14' E 011°34'0 0.0
2014-Sep-10 09:32N 58°14' E 011°34'4 3.9
2014-Sep-10 08:33N 58°11' E 011°28'5 4.8
2014-Sep-10 07:30N 58°16' E 011°26'  
Track history (hours):
 
Tides and Currents Weather Stations Pressure Air Temp Water Temp Dewpoint Dewpoint Depression Visibility Wind Speed Wind Dir Waves Ship Positions

Oceanographic research ship Skagerak (Sweden)

Detailed information on ship capabilities available from University of Delaware's Ocean Information Center.

Last reported at 2014-Sep-15 23:19 UTC. Time now 2014-Sep-16 02:55 UTC.
Position N 58°56' E 011°10'.

Length 37 m; draft 3.8 m.

Type: Dredging. MMSI: 265280000.

Date/timePositionNaut miles runAvg speedWind from/ knotsBaromVisibWave heightAir tempDewpointWater temp
2014-Sep-15 23:19N 58°56' E 011°10'36 2.4
2014-Sep-15 08:12N 58°20' E 011°09'10 9.4
2014-Sep-15 07:06N 58°15' E 011°27'  
2014-Sep-11 09:20N 58°15' E 011°27'1 0.1
2014-Sep-10 17:33N 58°16' E 011°26'5 3.7
2014-Sep-10 16:12N 58°12' E 011°29'3 5.2
2014-Sep-10 15:33N 58°13' E 011°34'0 0.5
2014-Sep-10 14:33N 58°14' E 011°34'0 0.5
2014-Sep-10 13:33N 58°13' E 011°34'1 0.6
2014-Sep-10 12:29N 58°14' E 011°35'1 0.6
2014-Sep-10 11:33N 58°14' E 011°34'0 0.0
2014-Sep-10 10:33N 58°14' E 011°34'0 0.0
2014-Sep-10 09:32N 58°14' E 011°34'4 3.9
2014-Sep-10 08:33N 58°11' E 011°28'5 4.8
2014-Sep-10 07:30N 58°16' E 011°26'  

Dump ship's entire track history